sensor_id;sensor_type;location;lat;lon;timestamp;pressure;altitude;pressure_sealevel;temperature;humidity
69223;BME280;56514;51.816;-0.026;2023-02-23T00:02:34;100918.63;;;8.16;71.24
69223;BME280;56514;51.816;-0.026;2023-02-23T00:05:39;100930.22;;;8.12;71.27
69223;BME280;56514;51.816;-0.026;2023-02-23T00:08:44;100927.41;;;8.15;71.50
69223;BME280;56514;51.816;-0.026;2023-02-23T00:11:56;100927.44;;;8.00;71.83
69223;BME280;56514;51.816;-0.026;2023-02-23T00:15:07;100919.97;;;7.92;71.86
69223;BME280;56514;51.816;-0.026;2023-02-23T00:18:16;100920.59;;;7.80;71.75
69223;BME280;56514;51.816;-0.026;2023-02-23T00:21:27;100930.22;;;7.64;72.22
69223;BME280;56514;51.816;-0.026;2023-02-23T00:24:43;100936.81;;;7.56;72.31
69223;BME280;56514;51.816;-0.026;2023-02-23T00:27:55;100941.44;;;7.51;72.18
69223;BME280;56514;51.816;-0.026;2023-02-23T00:31:04;100929.94;;;7.53;72.60
69223;BME280;56514;51.816;-0.026;2023-02-23T00:34:15;100928.78;;;7.59;72.70
69223;BME280;56514;51.816;-0.026;2023-02-23T00:37:28;100926.00;;;7.62;72.85
69223;BME280;56514;51.816;-0.026;2023-02-23T00:40:39;100930.69;;;7.72;72.78
69223;BME280;56514;51.816;-0.026;2023-02-23T00:43:25;100932.19;;;7.76;72.64
69223;BME280;56514;51.816;-0.026;2023-02-23T00:46:16;100940.44;;;7.86;72.84
69223;BME280;56514;51.816;-0.026;2023-02-23T00:49:02;100938.34;;;7.92;72.64
69223;BME280;56514;51.816;-0.026;2023-02-23T00:51:48;100943.53;;;7.94;72.90
69223;BME280;56514;51.816;-0.026;2023-02-23T00:54:34;100948.06;;;7.90;73.43
69223;BME280;56514;51.816;-0.026;2023-02-23T00:57:19;100937.97;;;7.83;73.80
69223;BME280;56514;51.816;-0.026;2023-02-23T01:00:06;100945.78;;;7.84;74.38
69223;BME280;56514;51.816;-0.026;2023-02-23T01:03:06;100946.59;;;7.85;74.15
69223;BME280;56514;51.816;-0.026;2023-02-23T01:05:51;100942.22;;;7.85;74.53
69223;BME280;56514;51.816;-0.026;2023-02-23T01:08:41;100948.31;;;7.86;74.93
69223;BME280;56514;51.816;-0.026;2023-02-23T01:11:27;100950.94;;;7.86;75.21
69223;BME280;56514;51.816;-0.026;2023-02-23T01:14:13;100946.53;;;7.86;75.55
69223;BME280;56514;51.816;-0.026;2023-02-23T01:16:59;100952.72;;;7.85;75.72
69223;BME280;56514;51.816;-0.026;2023-02-23T01:19:44;100948.16;;;7.89;75.47
69223;BME280;56514;51.816;-0.026;2023-02-23T01:22:30;100952.63;;;7.87;75.83
69223;BME280;56514;51.816;-0.026;2023-02-23T01:25:15;100953.16;;;7.93;75.32
69223;BME280;56514;51.816;-0.026;2023-02-23T01:28:01;100962.50;;;7.99;75.07
69223;BME280;56514;51.816;-0.026;2023-02-23T01:30:45;100965.19;;;7.97;74.86
69223;BME280;56514;51.816;-0.026;2023-02-23T01:33:30;100965.88;;;8.01;74.94
69223;BME280;56514;51.816;-0.026;2023-02-23T01:36:15;100959.84;;;7.99;75.29
69223;BME280;56514;51.816;-0.026;2023-02-23T01:38:59;100958.09;;;7.99;75.23
69223;BME280;56514;51.816;-0.026;2023-02-23T01:41:44;100960.03;;;7.96;75.65
69223;BME280;56514;51.816;-0.026;2023-02-23T01:47:14;100960.28;;;7.91;75.27
69223;BME280;56514;51.816;-0.026;2023-02-23T01:50:00;100963.50;;;7.96;74.73
69223;BME280;56514;51.816;-0.026;2023-02-23T01:52:50;100963.50;;;7.96;75.17
69223;BME280;56514;51.816;-0.026;2023-02-23T01:55:36;100959.38;;;7.92;74.99
69223;BME280;56514;51.816;-0.026;2023-02-23T01:58:23;100961.28;;;7.89;75.29
69223;BME280;56514;51.816;-0.026;2023-02-23T02:01:11;100964.69;;;7.91;75.78
69223;BME280;56514;51.816;-0.026;2023-02-23T02:04:01;100966.38;;;7.92;75.75
69223;BME280;56514;51.816;-0.026;2023-02-23T02:06:49;100961.28;;;7.89;76.33
69223;BME280;56514;51.816;-0.026;2023-02-23T02:09:38;100965.94;;;7.84;76.17
69223;BME280;56514;51.816;-0.026;2023-02-23T02:12:29;100959.00;;;7.83;76.71
69223;BME280;56514;51.816;-0.026;2023-02-23T02:15:13;100972.03;;;7.84;76.40
69223;BME280;56514;51.816;-0.026;2023-02-23T02:18:14;100980.75;;;7.85;76.69
69223;BME280;56514;51.816;-0.026;2023-02-23T02:21:37;100972.38;;;7.78;76.80
69223;BME280;56514;51.816;-0.026;2023-02-23T02:39:58;100971.03;;;7.54;78.02
69223;BME280;56514;51.816;-0.026;2023-02-23T02:43:21;100966.06;;;7.48;78.18
69223;BME280;56514;51.816;-0.026;2023-02-23T02:46:20;100970.56;;;7.46;78.63
69223;BME280;56514;51.816;-0.026;2023-02-23T02:49:14;100969.69;;;7.46;78.55
69223;BME280;56514;51.816;-0.026;2023-02-23T02:55:22;100973.56;;;7.39;78.79
69223;BME280;56514;51.816;-0.026;2023-02-23T02:58:08;100980.19;;;7.46;78.69
69223;BME280;56514;51.816;-0.026;2023-02-23T03:00:54;100971.78;;;7.39;78.56
69223;BME280;56514;51.816;-0.026;2023-02-23T03:04:16;100968.41;;;7.37;79.14
69223;BME280;56514;51.816;-0.026;2023-02-23T03:07:39;100965.69;;;7.39;78.83
69223;BME280;56514;51.816;-0.026;2023-02-23T03:11:07;100968.16;;;7.42;78.86
69223;BME280;56514;51.816;-0.026;2023-02-23T03:14:32;100967.94;;;7.46;78.55
69223;BME280;56514;51.816;-0.026;2023-02-23T03:17:45;100964.13;;;7.35;79.08
69223;BME280;56514;51.816;-0.026;2023-02-23T03:20:53;100967.53;;;7.37;79.21
69223;BME280;56514;51.816;-0.026;2023-02-23T03:28:16;100966.53;;;7.39;79.75
69223;BME280;56514;51.816;-0.026;2023-02-23T03:31:30;100976.19;;;7.39;79.14
69223;BME280;56514;51.816;-0.026;2023-02-23T03:34:52;100973.50;;;7.40;79.20
69223;BME280;56514;51.816;-0.026;2023-02-23T03:38:16;100979.41;;;7.44;79.53
69223;BME280;56514;51.816;-0.026;2023-02-23T03:41:23;100986.22;;;7.48;79.42
69223;BME280;56514;51.816;-0.026;2023-02-23T03:44:31;100986.00;;;7.52;79.16
69223;BME280;56514;51.816;-0.026;2023-02-23T03:47:39;100995.41;;;7.39;79.29
69223;BME280;56514;51.816;-0.026;2023-02-23T03:50:52;100997.19;;;7.39;79.25
69223;BME280;56514;51.816;-0.026;2023-02-23T03:57:03;100994.66;;;7.37;79.77
69223;BME280;56514;51.816;-0.026;2023-02-23T04:00:10;100999.75;;;7.40;79.84
69223;BME280;56514;51.816;-0.026;2023-02-23T04:03:17;100996.19;;;7.41;79.67
69223;BME280;56514;51.816;-0.026;2023-02-23T04:06:25;101003.03;;;7.44;79.59
69223;BME280;56514;51.816;-0.026;2023-02-23T04:09:31;100999.75;;;7.40;79.77
69223;BME280;56514;51.816;-0.026;2023-02-23T04:16:01;101008.81;;;7.33;80.36
69223;BME280;56514;51.816;-0.026;2023-02-23T04:18:47;101007.94;;;7.34;80.01
69223;BME280;56514;51.816;-0.026;2023-02-23T04:21:32;101005.16;;;7.37;80.31
69223;BME280;56514;51.816;-0.026;2023-02-23T04:24:16;101004.13;;;7.40;80.23
69223;BME280;56514;51.816;-0.026;2023-02-23T04:27:01;101005.81;;;7.41;80.60
69223;BME280;56514;51.816;-0.026;2023-02-23T04:29:46;101011.06;;;7.41;80.33
69223;BME280;56514;51.816;-0.026;2023-02-23T04:32:31;101017.03;;;7.44;80.39
69223;BME280;56514;51.816;-0.026;2023-02-23T04:35:16;101023.13;;;7.45;80.07
69223;BME280;56514;51.816;-0.026;2023-02-23T04:38:02;101013.63;;;7.42;80.15
69223;BME280;56514;51.816;-0.026;2023-02-23T04:40:47;101012.63;;;7.45;80.78
69223;BME280;56514;51.816;-0.026;2023-02-23T04:43:32;101022.97;;;7.48;80.38
69223;BME280;56514;51.816;-0.026;2023-02-23T04:46:16;101028.22;;;7.48;80.42
69223;BME280;56514;51.816;-0.026;2023-02-23T04:49:01;101018.69;;;7.45;80.24
69223;BME280;56514;51.816;-0.026;2023-02-23T04:51:47;101017.03;;;7.44;80.47
69223;BME280;56514;51.816;-0.026;2023-02-23T04:54:32;101026.72;;;7.42;80.40
69223;BME280;56514;51.816;-0.026;2023-02-23T04:57:17;101021.63;;;7.39;80.46
69223;BME280;56514;51.816;-0.026;2023-02-23T05:00:03;101022.50;;;7.40;80.83
69223;BME280;56514;51.816;-0.026;2023-02-23T05:02:48;101033.94;;;7.39;80.44
69223;BME280;56514;51.816;-0.026;2023-02-23T05:05:32;101024.41;;;7.36;80.20
69223;BME280;56514;51.816;-0.026;2023-02-23T05:08:17;101031.31;;;7.39;80.56
69223;BME280;56514;51.816;-0.026;2023-02-23T05:11:02;101025.91;;;7.42;80.93
69223;BME280;56514;51.816;-0.026;2023-02-23T05:13:46;101032.75;;;7.44;80.51
69223;BME280;56514;51.816;-0.026;2023-02-23T05:16:32;101030.94;;;7.46;80.50
69223;BME280;56514;51.816;-0.026;2023-02-23T05:19:17;101028.38;;;7.45;80.64
69223;BME280;56514;51.816;-0.026;2023-02-23T05:22:02;101031.31;;;7.39;80.73
69223;BME280;56514;51.816;-0.026;2023-02-23T05:24:47;101031.22;;;7.40;80.99
69223;BME280;56514;51.816;-0.026;2023-02-23T05:27:32;101031.09;;;7.43;80.77
69223;BME280;56514;51.816;-0.026;2023-02-23T05:30:18;101024.97;;;7.43;80.97
69223;BME280;56514;51.816;-0.026;2023-02-23T05:33:02;101029.13;;;7.47;80.75
69223;BME280;56514;51.816;-0.026;2023-02-23T05:35:47;101031.75;;;7.47;80.53
69223;BME280;56514;51.816;-0.026;2023-02-23T05:38:32;101034.38;;;7.47;80.75
69223;BME280;56514;51.816;-0.026;2023-02-23T05:41:20;101034.28;;;7.48;80.72
69223;BME280;56514;51.816;-0.026;2023-02-23T05:44:06;101038.66;;;7.49;81.14
69223;BME280;56514;51.816;-0.026;2023-02-23T05:46:51;101035.88;;;7.52;80.97
69223;BME280;56514;51.816;-0.026;2023-02-23T05:49:36;101039.13;;;7.57;81.29
69223;BME280;56514;51.816;-0.026;2023-02-23T05:52:22;101040.81;;;7.58;80.82
69223;BME280;56514;51.816;-0.026;2023-02-23T05:55:10;101041.66;;;7.59;80.97
69223;BME280;56514;51.816;-0.026;2023-02-23T05:57:55;101048.84;;;7.55;81.01
69223;BME280;56514;51.816;-0.026;2023-02-23T06:00:40;101055.63;;;7.59;80.60
69223;BME280;56514;51.816;-0.026;2023-02-23T06:03:25;101058.56;;;7.53;80.66
69223;BME280;56514;51.816;-0.026;2023-02-23T06:06:10;101062.03;;;7.54;80.97
69223;BME280;56514;51.816;-0.026;2023-02-23T06:08:55;101059.81;;;7.63;80.79
69223;BME280;56514;51.816;-0.026;2023-02-23T06:11:40;101060.78;;;7.61;81.39
69223;BME280;56514;51.816;-0.026;2023-02-23T06:14:25;101065.22;;;7.60;80.82
69223;BME280;56514;51.816;-0.026;2023-02-23T06:17:10;101071.59;;;7.55;80.57
69223;BME280;56514;51.816;-0.026;2023-02-23T06:19:55;101080.56;;;7.51;80.79
69223;BME280;56514;51.816;-0.026;2023-02-23T06:22:41;101091.00;;;7.52;80.99
69223;BME280;56514;51.816;-0.026;2023-02-23T06:25:27;101096.88;;;7.57;80.97
69223;BME280;56514;51.816;-0.026;2023-02-23T06:28:13;101095.00;;;7.59;80.74
69223;BME280;56514;51.816;-0.026;2023-02-23T06:30:58;101094.00;;;7.62;81.07
69223;BME280;56514;51.816;-0.026;2023-02-23T06:33:43;101105.34;;;7.62;80.66
69223;BME280;56514;51.816;-0.026;2023-02-23T06:36:28;101114.16;;;7.61;80.75
69223;BME280;56514;51.816;-0.026;2023-02-23T06:39:14;101111.53;;;7.61;81.04
69223;BME280;56514;51.816;-0.026;2023-02-23T06:41:59;101116.88;;;7.60;80.71
69223;BME280;56514;51.816;-0.026;2023-02-23T06:44:43;101124.03;;;7.56;81.23
69223;BME280;56514;51.816;-0.026;2023-02-23T06:47:28;101123.81;;;7.61;81.19
69223;BME280;56514;51.816;-0.026;2023-02-23T06:50:14;101130.53;;;7.66;80.99
69223;BME280;56514;51.816;-0.026;2023-02-23T06:52:59;101144.72;;;7.62;80.87
69223;BME280;56514;51.816;-0.026;2023-02-23T06:55:43;101137.88;;;7.60;81.14
69223;BME280;56514;51.816;-0.026;2023-02-23T06:58:28;101142.97;;;7.63;81.27
69223;BME280;56514;51.816;-0.026;2023-02-23T07:01:14;101160.25;;;7.67;81.20
69223;BME280;56514;51.816;-0.026;2023-02-23T07:03:59;101153.94;;;7.71;80.59
69223;BME280;56514;51.816;-0.026;2023-02-23T07:06:45;101155.22;;;7.62;80.80
69223;BME280;56514;51.816;-0.026;2023-02-23T07:09:30;101162.81;;;7.68;80.71
69223;BME280;56514;51.816;-0.026;2023-02-23T07:12:15;101181.81;;;7.73;80.46
69223;BME280;56514;51.816;-0.026;2023-02-23T07:15:01;101191.31;;;7.76;80.89
69223;BME280;56514;51.816;-0.026;2023-02-23T07:17:45;101196.50;;;7.77;80.59
69223;BME280;56514;51.816;-0.026;2023-02-23T07:20:33;101201.00;;;7.75;80.18
69223;BME280;56514;51.816;-0.026;2023-02-23T07:23:18;101210.84;;;7.70;80.19
69223;BME280;56514;51.816;-0.026;2023-02-23T07:26:02;101221.28;;;7.72;80.08
69223;BME280;56514;51.816;-0.026;2023-02-23T07:28:47;101215.81;;;7.76;80.61
69223;BME280;56514;51.816;-0.026;2023-02-23T07:31:32;101215.72;;;7.78;80.67
69223;BME280;56514;51.816;-0.026;2023-02-23T07:34:17;101229.81;;;7.77;80.48
69223;BME280;56514;51.816;-0.026;2023-02-23T07:37:02;101222.16;;;7.72;80.45
69223;BME280;56514;51.816;-0.026;2023-02-23T07:39:47;101231.78;;;7.72;80.95
69223;BME280;56514;51.816;-0.026;2023-02-23T07:42:32;101229.81;;;7.77;80.53
69223;BME280;56514;51.816;-0.026;2023-02-23T07:45:17;101227.09;;;7.78;80.69
69223;BME280;56514;51.816;-0.026;2023-02-23T07:48:02;101231.50;;;7.78;80.12
69223;BME280;56514;51.816;-0.026;2023-02-23T07:50:47;101233.19;;;7.79;80.49
69223;BME280;56514;51.816;-0.026;2023-02-23T07:53:32;101244.47;;;7.81;80.19
69223;BME280;56514;51.816;-0.026;2023-02-23T07:56:17;101259.38;;;7.80;80.36
69223;BME280;56514;51.816;-0.026;2023-02-23T07:59:02;101247.81;;;7.84;80.02
69223;BME280;56514;51.816;-0.026;2023-02-23T08:01:47;101258.47;;;7.81;79.72
69223;BME280;56514;51.816;-0.026;2023-02-23T08:04:31;101265.50;;;7.81;80.35
69223;BME280;56514;51.816;-0.026;2023-02-23T08:07:16;101264.47;;;7.83;80.06
69223;BME280;56514;51.816;-0.026;2023-02-23T08:10:02;101259.88;;;7.88;79.37
69223;BME280;56514;51.816;-0.026;2023-02-23T08:12:48;101272.03;;;7.91;79.15
69223;BME280;56514;51.816;-0.026;2023-02-23T08:15:33;101279.25;;;7.86;78.81
69223;BME280;56514;51.816;-0.026;2023-02-23T08:18:19;101283.91;;;7.98;79.28
69223;BME280;56514;51.816;-0.026;2023-02-23T08:21:03;101283.69;;;8.02;78.68
69223;BME280;56514;51.816;-0.026;2023-02-23T08:23:49;101288.50;;;8.11;78.60
69223;BME280;56514;51.816;-0.026;2023-02-23T08:26:36;101290.69;;;8.20;77.66
69223;BME280;56514;51.816;-0.026;2023-02-23T08:29:22;101294.16;;;8.21;78.25
69223;BME280;56514;51.816;-0.026;2023-02-23T08:32:07;101285.78;;;8.31;77.99
69223;BME280;56514;51.816;-0.026;2023-02-23T08:34:52;101299.25;;;8.42;77.61
69223;BME280;56514;51.816;-0.026;2023-02-23T08:37:38;101297.13;;;8.49;76.68
69223;BME280;56514;51.816;-0.026;2023-02-23T08:40:24;101310.66;;;8.41;77.08
69223;BME280;56514;51.816;-0.026;2023-02-23T08:43:09;101312.59;;;8.55;77.71
69223;BME280;56514;51.816;-0.026;2023-02-23T08:45:53;101309.81;;;8.58;76.54
69223;BME280;56514;51.816;-0.026;2023-02-23T08:48:38;101309.00;;;8.57;77.14
69223;BME280;56514;51.816;-0.026;2023-02-23T08:51:24;101313.56;;;8.54;76.74
69223;BME280;56514;51.816;-0.026;2023-02-23T08:54:09;101311.16;;;8.49;77.05
69223;BME280;56514;51.816;-0.026;2023-02-23T08:56:58;101312.31;;;8.61;77.39
69223;BME280;56514;51.816;-0.026;2023-02-23T08:59:43;101318.75;;;8.72;77.03
69223;BME280;56514;51.816;-0.026;2023-02-23T09:02:28;101318.91;;;8.69;75.60
69223;BME280;56514;51.816;-0.026;2023-02-23T09:05:14;101320.81;;;8.83;76.29
69223;BME280;56514;51.816;-0.026;2023-02-23T09:08:00;101321.97;;;8.94;76.12
69223;BME280;56514;51.816;-0.026;2023-02-23T09:10:45;101308.16;;;9.07;75.98
69223;BME280;56514;51.816;-0.026;2023-02-23T09:13:30;101313.88;;;9.15;74.95
69223;BME280;56514;51.816;-0.026;2023-02-23T09:16:16;101317.28;;;9.17;74.58
69223;BME280;56514;51.816;-0.026;2023-02-23T09:19:02;101309.56;;;9.14;73.90
69223;BME280;56514;51.816;-0.026;2023-02-23T09:21:47;101313.56;;;9.21;73.85
69223;BME280;56514;51.816;-0.026;2023-02-23T09:24:32;101317.03;;;9.21;73.36
69223;BME280;56514;51.816;-0.026;2023-02-23T09:27:16;101317.75;;;9.25;73.33
69223;BME280;56514;51.816;-0.026;2023-02-23T09:30:01;101320.47;;;9.23;73.37
69223;BME280;56514;51.816;-0.026;2023-02-23T09:32:47;101324.88;;;9.23;73.38
69223;BME280;56514;51.816;-0.026;2023-02-23T09:35:33;101324.69;;;9.26;73.85
69223;BME280;56514;51.816;-0.026;2023-02-23T09:38:19;101320.88;;;9.31;73.27
69223;BME280;56514;51.816;-0.026;2023-02-23T09:47:31;101347.13;;;9.81;70.41
69223;BME280;56514;51.816;-0.026;2023-02-23T09:50:23;101350.97;;;10.06;71.07
69223;BME280;56514;51.816;-0.026;2023-02-23T09:56:13;101347.22;;;10.41;69.26
69223;BME280;56514;51.816;-0.026;2023-02-23T09:59:04;101354.00;;;10.45;69.75
69223;BME280;56514;51.816;-0.026;2023-02-23T10:04:50;101350.84;;;10.84;69.42
69223;BME280;56514;51.816;-0.026;2023-02-23T10:08:06;101354.38;;;11.13;68.43
69223;BME280;56514;51.816;-0.026;2023-02-23T10:11:12;101347.63;;;11.23;67.56
69223;BME280;56514;51.816;-0.026;2023-02-23T10:23:47;101357.72;;;11.58;66.50
69223;BME280;56514;51.816;-0.026;2023-02-23T10:26:49;101364.56;;;11.62;67.05
69223;BME280;56514;51.816;-0.026;2023-02-23T10:29:53;101360.09;;;11.63;67.04
69223;BME280;56514;51.816;-0.026;2023-02-23T10:35:58;101377.50;;;11.23;66.59
69223;BME280;56514;51.816;-0.026;2023-02-23T10:38:47;101377.97;;;11.16;66.23
69223;BME280;56514;51.816;-0.026;2023-02-23T10:41:33;101380.50;;;11.17;67.09
69223;BME280;56514;51.816;-0.026;2023-02-23T10:44:23;101368.84;;;11.35;66.88
69223;BME280;56514;51.816;-0.026;2023-02-23T10:47:19;101388.59;;;11.86;67.54
69223;BME280;56514;51.816;-0.026;2023-02-23T10:50:04;101386.16;;;12.23;65.82
69223;BME280;56514;51.816;-0.026;2023-02-23T10:52:55;101379.22;;;12.62;64.03
69223;BME280;56514;51.816;-0.026;2023-02-23T10:55:46;101387.34;;;12.59;63.86
69223;BME280;56514;51.816;-0.026;2023-02-23T10:58:48;101393.59;;;11.76;64.78
69223;BME280;56514;51.816;-0.026;2023-02-23T11:01:39;101398.63;;;11.09;66.37
69223;BME280;56514;51.816;-0.026;2023-02-23T11:04:32;101400.34;;;10.65;66.89
69223;BME280;56514;51.816;-0.026;2023-02-23T11:07:24;101402.00;;;10.36;67.88
69223;BME280;56514;51.816;-0.026;2023-02-23T11:10:25;101399.72;;;10.46;68.38
69223;BME280;56514;51.816;-0.026;2023-02-23T11:13:23;101406.91;;;10.58;68.36
69223;BME280;56514;51.816;-0.026;2023-02-23T11:18:59;101406.22;;;10.70;68.36
69223;BME280;56514;51.816;-0.026;2023-02-23T11:21:50;101408.31;;;10.34;67.55
69223;BME280;56514;51.816;-0.026;2023-02-23T11:24:38;101407.69;;;9.98;68.83
69223;BME280;56514;51.816;-0.026;2023-02-23T11:27:26;101396.19;;;9.99;69.42
69223;BME280;56514;51.816;-0.026;2023-02-23T11:30:12;101416.47;;;10.14;69.75
69223;BME280;56514;51.816;-0.026;2023-02-23T11:32:59;101411.13;;;10.31;69.75
69223;BME280;56514;51.816;-0.026;2023-02-23T11:35:58;101409.41;;;10.45;69.24
69223;BME280;56514;51.816;-0.026;2023-02-23T11:38:45;101409.25;;;10.33;68.86
69223;BME280;56514;51.816;-0.026;2023-02-23T11:41:31;101419.13;;;10.14;68.95
69223;BME280;56514;51.816;-0.026;2023-02-23T11:44:21;101408.97;;;10.06;70.10
69223;BME280;56514;51.816;-0.026;2023-02-23T11:47:17;101409.44;;;10.14;69.43
69223;BME280;56514;51.816;-0.026;2023-02-23T11:50:06;101407.28;;;10.21;69.58
69223;BME280;56514;51.816;-0.026;2023-02-23T11:53:13;101412.38;;;10.39;69.15
69223;BME280;56514;51.816;-0.026;2023-02-23T11:56:01;101408.53;;;10.60;68.23
69223;BME280;56514;51.816;-0.026;2023-02-23T11:58:55;101410.44;;;10.88;67.97
69223;BME280;56514;51.816;-0.026;2023-02-23T12:01:54;101400.41;;;11.09;67.34
69223;BME280;56514;51.816;-0.026;2023-02-23T12:04:40;101407.56;;;11.07;66.28
69223;BME280;56514;51.816;-0.026;2023-02-23T12:07:46;101413.88;;;11.04;66.53
69223;BME280;56514;51.816;-0.026;2023-02-23T12:10:41;101418.09;;;11.36;66.57
69223;BME280;56514;51.816;-0.026;2023-02-23T12:13:49;101403.44;;;11.88;65.52
69223;BME280;56514;51.816;-0.026;2023-02-23T12:16:41;101411.19;;;12.32;62.41
69223;BME280;56514;51.816;-0.026;2023-02-23T12:19:52;101393.69;;;12.03;60.14
69223;BME280;56514;51.816;-0.026;2023-02-23T12:22:48;101403.41;;;12.02;62.11
69223;BME280;56514;51.816;-0.026;2023-02-23T12:25:41;101390.53;;;12.10;61.35
69223;BME280;56514;51.816;-0.026;2023-02-23T12:28:42;101382.47;;;11.71;60.78
69223;BME280;56514;51.816;-0.026;2023-02-23T12:31:46;101391.63;;;11.66;61.91
69223;BME280;56514;51.816;-0.026;2023-02-23T12:34:43;101395.47;;;11.60;61.65
69223;BME280;56514;51.816;-0.026;2023-02-23T12:37:37;101397.00;;;11.78;61.92
69223;BME280;56514;51.816;-0.026;2023-02-23T12:40:29;101397.00;;;11.92;61.92
69223;BME280;56514;51.816;-0.026;2023-02-23T12:43:29;101392.59;;;12.19;62.17
69223;BME280;56514;51.816;-0.026;2023-02-23T12:46:20;101388.81;;;12.77;60.80
69223;BME280;56514;51.816;-0.026;2023-02-23T12:52:09;101392.53;;;12.87;58.02
69223;BME280;56514;51.816;-0.026;2023-02-23T12:54:55;101383.34;;;12.53;58.66
69223;BME280;56514;51.816;-0.026;2023-02-23T13:01:09;101393.09;;;12.12;59.39
69223;BME280;56514;51.816;-0.026;2023-02-23T13:07:27;101388.28;;;12.04;59.36
69223;BME280;56514;51.816;-0.026;2023-02-23T13:19:22;101399.06;;;12.69;57.83
69223;BME280;56514;51.816;-0.026;2023-02-23T13:25:35;101396.81;;;12.63;56.18
69223;BME280;56514;51.816;-0.026;2023-02-23T13:31:37;101396.31;;;12.70;56.48
69223;BME280;56514;51.816;-0.026;2023-02-23T13:34:33;101396.25;;;11.90;57.26
69223;BME280;56514;51.816;-0.026;2023-02-23T13:37:24;101410.91;;;11.38;59.13
69223;BME280;56514;51.816;-0.026;2023-02-23T13:46:18;101404.88;;;10.63;61.11
69223;BME280;56514;51.816;-0.026;2023-02-23T13:52:31;101402.09;;;10.50;61.47
69223;BME280;56514;51.816;-0.026;2023-02-23T13:58:13;101404.19;;;10.59;60.52
69223;BME280;56514;51.816;-0.026;2023-02-23T14:01:10;101408.13;;;10.68;60.79
69223;BME280;56514;51.816;-0.026;2023-02-23T14:04:02;101400.41;;;10.79;60.55
69223;BME280;56514;51.816;-0.026;2023-02-23T14:09:56;101409.38;;;11.20;59.91
69223;BME280;56514;51.816;-0.026;2023-02-23T14:16:09;101406.75;;;11.64;59.96
69223;BME280;56514;51.816;-0.026;2023-02-23T14:19:10;101405.78;;;11.93;58.84
69223;BME280;56514;51.816;-0.026;2023-02-23T14:22:04;101400.03;;;12.00;58.75
69223;BME280;56514;51.816;-0.026;2023-02-23T14:28:37;101417.84;;;11.55;58.52
69223;BME280;56514;51.816;-0.026;2023-02-23T14:31:22;101424.69;;;11.29;58.90
69223;BME280;56514;51.816;-0.026;2023-02-23T14:34:12;101425.63;;;10.99;58.93
69223;BME280;56514;51.816;-0.026;2023-02-23T14:37:11;101417.97;;;10.80;59.54
69223;BME280;56514;51.816;-0.026;2023-02-23T14:40:06;101423.16;;;10.82;60.36
69223;BME280;56514;51.816;-0.026;2023-02-23T14:42:57;101427.44;;;10.98;60.05
69223;BME280;56514;51.816;-0.026;2023-02-23T14:45:45;101436.44;;;11.10;59.72
69223;BME280;56514;51.816;-0.026;2023-02-23T14:48:32;101439.69;;;10.99;58.99
69223;BME280;56514;51.816;-0.026;2023-02-23T14:51:24;101445.06;;;10.68;59.39
69223;BME280;56514;51.816;-0.026;2023-02-23T14:57:22;101456.72;;;10.33;59.91
69223;BME280;56514;51.816;-0.026;2023-02-23T15:05:54;101455.66;;;9.87;61.26
69223;BME280;56514;51.816;-0.026;2023-02-23T15:08:43;101461.97;;;9.85;61.21
69223;BME280;56514;51.816;-0.026;2023-02-23T15:11:28;101463.81;;;9.83;60.67
69223;BME280;56514;51.816;-0.026;2023-02-23T15:14:15;101467.72;;;9.76;60.75
69223;BME280;56514;51.816;-0.026;2023-02-23T15:17:01;101466.19;;;9.72;60.22
69223;BME280;56514;51.816;-0.026;2023-02-23T15:19:49;101469.41;;;9.77;60.59
69223;BME280;56514;51.816;-0.026;2023-02-23T15:22:36;101461.28;;;9.81;60.53
69223;BME280;56514;51.816;-0.026;2023-02-23T15:25:24;101459.59;;;9.80;60.89
69223;BME280;56514;51.816;-0.026;2023-02-23T15:28:26;101460.13;;;9.87;61.33
69223;BME280;56514;51.816;-0.026;2023-02-23T15:31:13;101464.91;;;9.96;61.07
69223;BME280;56514;51.816;-0.026;2023-02-23T15:33:57;101471.53;;;10.03;61.19
69223;BME280;56514;51.816;-0.026;2023-02-23T15:36:43;101467.97;;;10.04;60.85
69223;BME280;56514;51.816;-0.026;2023-02-23T15:39:37;101459.00;;;10.08;60.62
69223;BME280;56514;51.816;-0.026;2023-02-23T15:42:30;101464.91;;;9.96;60.98
69223;BME280;56514;51.816;-0.026;2023-02-23T15:48:19;101473.88;;;9.76;61.25
69223;BME280;56514;51.816;-0.026;2023-02-23T15:51:06;101478.59;;;9.70;60.83
69223;BME280;56514;51.816;-0.026;2023-02-23T15:54:10;101479.56;;;9.52;60.70
69223;BME280;56514;51.816;-0.026;2023-02-23T15:57:07;101478.78;;;9.33;60.46
69223;BME280;56514;51.816;-0.026;2023-02-23T16:00:00;101493.47;;;9.03;61.26
69223;BME280;56514;51.816;-0.026;2023-02-23T16:02:46;101486.47;;;8.84;60.78
69223;BME280;56514;51.816;-0.026;2023-02-23T16:05:34;101485.09;;;8.77;60.97
69223;BME280;56514;51.816;-0.026;2023-02-23T16:08:24;101493.28;;;8.71;61.06
69223;BME280;56514;51.816;-0.026;2023-02-23T16:11:12;101489.34;;;8.80;60.38
69223;BME280;56514;51.816;-0.026;2023-02-23T16:13:58;101494.38;;;8.84;60.48
69223;BME280;56514;51.816;-0.026;2023-02-23T16:16:44;101483.84;;;8.84;59.33
69223;BME280;56514;51.816;-0.026;2023-02-23T16:19:33;101486.63;;;8.81;58.61
69223;BME280;56514;51.816;-0.026;2023-02-23T16:22:25;101477.88;;;8.81;58.71
69223;BME280;56514;51.816;-0.026;2023-02-23T16:25:17;101477.81;;;8.82;58.47
69223;BME280;56514;51.816;-0.026;2023-02-23T16:28:06;101485.69;;;8.82;58.52
69223;BME280;56514;51.816;-0.026;2023-02-23T16:31:01;101480.59;;;8.79;58.59
69223;BME280;56514;51.816;-0.026;2023-02-23T16:33:53;101479.91;;;8.76;57.11
69223;BME280;56514;51.816;-0.026;2023-02-23T16:36:40;101477.84;;;8.64;57.66
69223;BME280;56514;51.816;-0.026;2023-02-23T16:39:31;101478.56;;;8.67;58.02
69223;BME280;56514;51.816;-0.026;2023-02-23T16:42:31;101476.00;;;8.66;57.35
69223;BME280;56514;51.816;-0.026;2023-02-23T16:45:17;101464.69;;;8.64;57.25
69223;BME280;56514;51.816;-0.026;2023-02-23T16:48:02;101476.06;;;8.64;56.48
69223;BME280;56514;51.816;-0.026;2023-02-23T16:50:48;101475.56;;;8.56;56.81
69223;BME280;56514;51.816;-0.026;2023-02-23T16:53:34;101467.53;;;8.59;56.99